createdAt,value
2022-11-15T00:00:24.691Z,15.93
2022-11-15T00:03:02.561Z,16.20
2022-11-15T00:05:31.170Z,16.87
2022-11-15T00:08:07.720Z,19.03
2022-11-15T00:10:35.852Z,17.70
2022-11-15T00:13:14.574Z,15.30
2022-11-15T00:15:43.515Z,17.53
2022-11-15T00:18:22.605Z,15.23
2022-11-15T00:20:51.003Z,13.93
2022-11-15T00:23:21.093Z,17.13
2022-11-15T00:25:55.620Z,14.17
2022-11-15T00:28:24.221Z,14.00
2022-11-15T00:30:59.590Z,15.70
2022-11-15T00:33:29.406Z,14.87
2022-11-15T00:36:09.535Z,13.83
2022-11-15T00:38:46.192Z,15.20
2022-11-15T00:41:21.695Z,13.87
2022-11-15T00:43:50.605Z,14.00
2022-11-15T00:46:25.559Z,13.90
2022-11-15T00:48:53.672Z,13.47
2022-11-15T00:51:22.082Z,13.93
2022-11-15T00:53:58.616Z,16.23
2022-11-15T00:56:27.066Z,15.03
2022-11-15T00:59:02.562Z,13.77
2022-11-15T01:01:30.988Z,13.27
2022-11-15T01:04:06.633Z,14.23
2022-11-15T01:06:35.284Z,13.60
2022-11-15T01:09:11.801Z,16.03
2022-11-15T01:11:40.594Z,16.63
2022-11-15T01:14:08.814Z,13.43
2022-11-15T01:16:43.767Z,14.00
2022-11-15T01:19:12.599Z,13.90
2022-11-15T01:21:47.723Z,13.60
2022-11-15T01:24:17.561Z,14.23
2022-11-15T01:26:52.629Z,14.47
2022-11-15T01:29:21.105Z,14.77
2022-11-15T01:31:55.785Z,12.57
2022-11-15T01:34:24.279Z,14.27
2022-11-15T01:37:06.640Z,13.33
2022-11-15T01:39:43.482Z,13.40
2022-11-15T01:42:21.766Z,13.23
2022-11-15T01:44:57.703Z,13.37
2022-11-15T01:47:28.741Z,13.80
2022-11-15T01:50:08.669Z,13.93
2022-11-15T01:52:38.059Z,13.87
2022-11-15T01:55:18.679Z,13.77
2022-11-15T01:57:49.990Z,13.07
2022-11-15T02:00:25.603Z,13.40
2022-11-15T02:02:54.019Z,13.13
2022-11-15T02:05:22.410Z,12.90
2022-11-15T02:07:57.826Z,13.40
2022-11-15T02:10:28.367Z,13.57
2022-11-15T02:13:04.675Z,13.77
2022-11-15T02:15:41.015Z,13.27
2022-11-15T02:18:23.680Z,14.37
2022-11-15T02:21:03.556Z,13.23
2022-11-15T02:24:07.690Z,14.80
2022-11-15T02:27:18.120Z,13.63
2022-11-15T02:30:12.739Z,13.80
2022-11-15T02:32:46.746Z,13.57
2022-11-15T02:35:29.868Z,13.77
2022-11-15T02:38:13.734Z,13.73
2022-11-15T02:40:48.342Z,13.57
2022-11-15T02:43:47.626Z,13.27
2022-11-15T02:46:21.693Z,15.57
2022-11-15T02:48:57.737Z,14.90
2022-11-15T02:51:26.505Z,14.90
2022-11-15T02:54:01.848Z,15.13
2022-11-15T02:56:30.366Z,14.00
2022-11-15T02:59:31.848Z,15.30
2022-11-15T03:02:13.980Z,14.23
2022-11-15T03:04:53.723Z,18.07
2022-11-15T03:07:34.932Z,15.17
2022-11-15T03:10:09.308Z,14.60
2022-11-15T03:12:50.690Z,14.97
2022-11-15T03:15:23.815Z,14.87
2022-11-15T03:18:03.226Z,14.70
2022-11-15T03:20:34.340Z,16.73
2022-11-15T03:23:13.853Z,15.07
2022-11-15T03:25:45.815Z,14.43
2022-11-15T03:28:26.041Z,15.83
2022-11-15T03:31:04.844Z,14.40
2022-11-15T03:33:34.204Z,15.17
2022-11-15T03:36:10.745Z,14.70
2022-11-15T03:38:47.195Z,14.83
2022-11-15T03:41:27.774Z,15.93
2022-11-15T03:44:02.190Z,16.27
2022-11-15T03:46:41.873Z,17.57
2022-11-15T03:49:14.035Z,15.67
2022-11-15T03:51:50.677Z,17.73
2022-11-15T03:54:25.949Z,17.23
2022-11-15T03:56:54.262Z,16.63
2022-11-15T03:59:28.798Z,16.40
2022-11-15T04:01:57.081Z,15.37
2022-11-15T04:04:31.784Z,16.27
2022-11-15T04:07:01.808Z,16.13
2022-11-15T04:09:36.892Z,16.50
2022-11-15T04:12:05.922Z,16.63
2022-11-15T04:14:40.787Z,16.10
2022-11-15T04:17:15.768Z,17.57
2022-11-15T04:20:01.295Z,20.87
2022-11-15T04:22:59.812Z,18.20
2022-11-15T04:25:32.141Z,19.57
2022-11-15T04:28:06.811Z,15.43
2022-11-15T04:30:35.623Z,14.53
2022-11-15T04:33:10.964Z,16.57
2022-11-15T04:35:39.491Z,16.17
2022-11-15T04:38:23.852Z,13.90
2022-11-15T04:40:59.152Z,14.17
2022-11-15T04:43:34.077Z,15.20
2022-11-15T04:46:02.606Z,14.67
2022-11-15T04:48:31.045Z,16.77
2022-11-15T04:51:05.992Z,16.77
2022-11-15T04:53:35.705Z,15.87
2022-11-15T04:56:10.777Z,15.97
2022-11-15T04:58:39.254Z,13.97
2022-11-15T05:01:16.949Z,14.37
2022-11-15T05:04:08.715Z,16.07
2022-11-15T05:06:43.867Z,13.93
2022-11-15T05:09:15.269Z,13.33
2022-11-15T05:11:43.728Z,12.73
2022-11-15T05:14:18.746Z,13.57
2022-11-15T05:16:47.296Z,14.90
2022-11-15T05:19:21.813Z,13.80
2022-11-15T05:21:50.474Z,12.80
2022-11-15T05:24:26.966Z,12.63
2022-11-15T05:26:55.419Z,11.63
2022-11-15T05:29:30.852Z,11.57
2022-11-15T05:31:59.333Z,12.00
2022-11-15T05:34:27.803Z,12.60
2022-11-15T05:37:02.906Z,11.50
2022-11-15T05:39:32.794Z,11.27
2022-11-15T05:42:14.981Z,10.57
2022-11-15T05:44:47.373Z,13.13
2022-11-15T05:47:25.978Z,10.63
2022-11-15T05:49:56.308Z,10.50
2022-11-15T05:52:33.849Z,10.43
2022-11-15T05:55:05.773Z,11.13
2022-11-15T05:57:40.929Z,10.43
2022-11-15T06:00:10.556Z,12.03
2022-11-15T06:02:39.192Z,10.10
2022-11-15T06:05:14.896Z,12.40
2022-11-15T06:07:43.462Z,10.63
2022-11-15T06:10:20.027Z,9.27
2022-11-15T06:12:48.469Z,9.63
2022-11-15T06:15:23.973Z,9.87
2022-11-15T06:17:52.894Z,9.97
2022-11-15T06:20:28.021Z,8.80
2022-11-15T06:23:00.454Z,10.10
2022-11-15T06:25:37.946Z,10.43
2022-11-15T06:28:13.002Z,8.67
2022-11-15T06:30:41.206Z,9.43
2022-11-15T06:33:17.023Z,9.83
2022-11-15T06:35:45.461Z,11.63
2022-11-15T06:38:28.040Z,8.37
2022-11-15T06:40:57.902Z,8.53
2022-11-15T06:43:33.231Z,9.63
2022-11-15T06:46:02.114Z,8.50
2022-11-15T06:48:37.957Z,9.67
2022-11-15T06:51:08.106Z,8.77
2022-11-15T06:53:43.107Z,11.47
2022-11-15T06:56:19.076Z,10.70
2022-11-15T06:58:47.992Z,10.50
2022-11-15T07:01:23.145Z,9.40
2022-11-15T07:03:52.129Z,9.37
2022-11-15T07:06:26.900Z,11.83
2022-11-15T07:08:55.427Z,8.60
2022-11-15T07:11:31.971Z,9.40
2022-11-15T07:14:00.434Z,9.00
2022-11-15T07:16:35.906Z,9.90
2022-11-15T07:19:10.963Z,9.53
2022-11-15T07:21:39.496Z,11.33
2022-11-15T07:24:15.090Z,10.03
2022-11-15T07:26:45.103Z,11.70
2022-11-15T07:29:20.077Z,8.97
2022-11-15T07:31:48.365Z,8.17
2022-11-15T07:34:23.002Z,10.70
2022-11-15T07:36:51.614Z,7.30
2022-11-15T07:39:32.913Z,9.87
2022-11-15T07:42:20.783Z,8.03
2022-11-15T07:44:55.941Z,6.20
2022-11-15T07:47:31.108Z,6.03
2022-11-15T07:49:59.529Z,6.03
2022-11-15T07:52:33.970Z,6.50
2022-11-15T07:55:02.330Z,5.20
2022-11-15T07:57:39.108Z,5.73
2022-11-15T08:00:08.933Z,5.07
2022-11-15T08:02:44.144Z,5.43
2022-11-15T08:05:12.823Z,6.67
2022-11-15T08:07:41.326Z,4.40
2022-11-15T08:10:18.965Z,4.20
2022-11-15T08:12:49.323Z,3.97
2022-11-15T08:15:24.145Z,4.30
2022-11-15T08:17:56.900Z,4.03
2022-11-15T08:20:32.325Z,4.03
2022-11-15T08:23:01.656Z,4.07
2022-11-15T08:25:38.008Z,3.37
2022-11-15T08:28:10.448Z,5.67
2022-11-15T08:30:49.039Z,3.77
2022-11-15T08:33:17.554Z,4.63
2022-11-15T08:35:46.818Z,3.83
2022-11-15T08:38:27.980Z,2.93
2022-11-15T08:41:05.686Z,3.37
2022-11-15T08:43:44.992Z,4.00
2022-11-15T08:46:15.590Z,4.03
2022-11-15T08:48:51.153Z,2.70
2022-11-15T08:51:19.607Z,4.23
2022-11-15T08:53:55.216Z,3.90
2022-11-15T08:56:23.403Z,2.67
2022-11-15T08:58:53.063Z,3.87
2022-11-15T09:01:29.192Z,2.90
2022-11-15T09:03:57.765Z,3.40
2022-11-15T09:06:32.953Z,3.53
2022-11-15T09:09:03.037Z,5.93
2022-11-15T09:11:38.095Z,4.70
2022-11-15T09:14:08.113Z,3.03
2022-11-15T09:16:43.216Z,3.87
2022-11-15T09:19:12.044Z,5.67
2022-11-15T09:21:40.618Z,3.20
2022-11-15T09:24:16.021Z,5.07
2022-11-15T09:26:44.663Z,2.33
2022-11-15T09:29:21.178Z,3.00
2022-11-15T09:31:49.874Z,2.90
2022-11-15T09:34:25.105Z,2.67
2022-11-15T09:36:53.314Z,5.47
2022-11-15T09:39:35.033Z,5.03
2022-11-15T09:42:24.327Z,5.60
2022-11-15T09:45:18.194Z,2.77
2022-11-15T09:48:11.879Z,2.97
2022-11-15T09:50:51.053Z,6.40
2022-11-15T09:53:57.580Z,4.13
2022-11-15T09:56:29.221Z,3.30
2022-11-15T09:59:16.218Z,4.50
2022-11-15T10:01:52.268Z,5.23
2022-11-15T10:04:28.254Z,5.20
2022-11-15T10:07:05.343Z,4.57
2022-11-15T10:09:47.268Z,3.83
2022-11-15T10:12:17.912Z,5.30
2022-11-15T10:14:54.804Z,4.43
2022-11-15T10:20:43.637Z,2.53
2022-11-15T10:23:16.278Z,3.30
2022-11-15T10:25:51.579Z,4.93
2022-11-15T10:28:24.264Z,4.43
2022-11-15T10:31:01.658Z,2.83
2022-11-15T10:33:35.185Z,2.43
2022-11-15T10:36:33.783Z,3.03
2022-11-15T10:39:02.458Z,5.17
2022-11-15T10:41:44.671Z,4.37
2022-11-15T10:44:28.561Z,3.17
2022-11-15T10:47:37.656Z,5.37
2022-11-15T10:50:09.811Z,5.57
2022-11-15T10:52:54.752Z,5.87
2022-11-15T10:55:28.209Z,2.47
2022-11-15T10:58:05.838Z,4.30
2022-11-15T11:00:37.675Z,5.07
2022-11-15T11:03:15.710Z,2.40
2022-11-15T11:05:44.365Z,5.53
2022-11-15T11:08:32.885Z,4.53
2022-11-15T11:11:04.180Z,2.83
2022-11-15T11:13:40.660Z,4.67
2022-11-15T11:16:34.984Z,3.97
2022-11-15T11:19:43.785Z,6.77
2022-11-15T11:22:27.015Z,5.03
2022-11-15T11:25:18.802Z,3.97
2022-11-15T11:28:00.959Z,3.37
2022-11-15T11:30:48.644Z,3.50
2022-11-15T11:33:22.492Z,2.97
2022-11-15T11:36:10.817Z,6.20
2022-11-15T11:39:00.485Z,3.37
2022-11-15T11:41:55.718Z,4.03
2022-11-15T11:44:37.176Z,2.80
2022-11-15T11:47:19.661Z,3.43
2022-11-15T11:49:53.358Z,3.73
2022-11-15T11:52:34.828Z,5.73
2022-11-15T11:55:14.834Z,4.33
2022-11-15T11:57:55.741Z,6.33
2022-11-15T12:00:27.239Z,3.50
2022-11-15T12:03:20.881Z,2.60
2022-11-15T12:05:54.151Z,4.60
2022-11-15T12:08:41.724Z,4.07
2022-11-15T12:11:17.450Z,3.50
2022-11-15T12:13:56.879Z,2.90
2022-11-15T12:16:29.431Z,3.00
2022-11-15T12:19:13.665Z,3.07
2022-11-15T12:21:55.903Z,4.10
2022-11-15T12:24:37.510Z,3.07
2022-11-15T12:27:09.786Z,3.03
2022-11-15T12:29:49.741Z,4.47
2022-11-15T12:32:27.611Z,2.67
2022-11-15T12:35:04.059Z,3.87
2022-11-15T12:38:00.847Z,4.13
2022-11-15T12:40:38.890Z,5.00
2022-11-15T12:43:39.991Z,3.43
2022-11-15T12:46:22.727Z,3.77
2022-11-15T12:48:55.026Z,3.57
2022-11-15T12:51:37.926Z,2.67
2022-11-15T12:55:00.408Z,4.20
2022-11-15T12:57:53.791Z,3.50
2022-11-15T13:00:48.103Z,3.37
2022-11-15T13:03:33.755Z,3.70
2022-11-15T13:06:08.989Z,3.80
2022-11-15T13:08:54.929Z,2.73
2022-11-15T13:11:52.343Z,4.93
2022-11-15T13:14:50.805Z,3.47
2022-11-15T13:17:34.806Z,1.90
2022-11-15T13:20:36.092Z,2.63
2022-11-15T13:23:11.926Z,3.90
2022-11-15T13:26:08.770Z,2.73
2022-11-15T13:28:40.921Z,1.90
2022-11-15T13:31:34.953Z,3.60
2022-11-15T13:34:17.932Z,3.80
2022-11-15T13:37:02.795Z,2.27
2022-11-15T13:39:33.633Z,2.73
2022-11-15T13:42:08.955Z,2.27
2022-11-15T13:44:38.249Z,3.10
2022-11-15T13:47:14.809Z,2.37
2022-11-15T13:49:43.702Z,2.10
2022-11-15T13:52:24.771Z,2.60
2022-11-15T13:54:59.700Z,2.97
2022-11-15T13:57:37.895Z,1.90
2022-11-15T14:00:25.229Z,4.17
2022-11-15T14:03:03.062Z,4.00
2022-11-15T14:05:31.451Z,2.83
2022-11-15T14:08:09.972Z,1.77
2022-11-15T14:10:42.230Z,1.77
2022-11-15T14:13:36.731Z,2.93
2022-11-15T14:16:21.189Z,2.23
2022-11-15T14:18:57.838Z,3.40
2022-11-15T14:21:33.504Z,1.23
2022-11-15T14:24:28.002Z,1.83
2022-11-15T14:26:56.833Z,3.50
2022-11-15T14:29:32.886Z,2.03
2022-11-15T14:32:15.757Z,3.10
2022-11-15T14:34:50.805Z,2.53
2022-11-15T14:37:25.659Z,2.00
2022-11-15T14:40:02.828Z,3.37
2022-11-15T14:42:30.996Z,2.83
2022-11-15T14:45:06.031Z,1.10
2022-11-15T14:47:34.719Z,1.13
2022-11-15T14:50:10.066Z,1.37
2022-11-15T14:52:38.610Z,1.87
2022-11-15T14:55:24.972Z,2.83
2022-11-15T14:57:54.078Z,1.77
2022-11-15T15:00:34.852Z,1.60
2022-11-15T15:03:05.022Z,1.83
2022-11-15T15:05:41.880Z,1.97
2022-11-15T15:08:11.430Z,3.83
2022-11-15T15:10:51.093Z,3.53
2022-11-15T15:13:22.249Z,2.17
2022-11-15T15:15:57.908Z,1.80
2022-11-15T15:18:46.014Z,1.73
2022-11-15T15:21:35.402Z,9.43
2022-11-15T15:24:05.687Z,2.13
2022-11-15T15:26:43.859Z,2.03
2022-11-15T15:29:12.521Z,2.50
2022-11-15T15:31:48.024Z,3.00
2022-11-15T15:34:17.406Z,3.93
2022-11-15T15:36:52.061Z,3.13
2022-11-15T15:39:20.449Z,2.53
2022-11-15T15:41:57.575Z,2.87
2022-11-15T15:44:27.187Z,3.47
2022-11-15T15:47:01.940Z,5.60
2022-11-15T15:49:30.715Z,6.20
2022-11-15T15:52:05.883Z,3.63
2022-11-15T15:54:34.214Z,7.33
2022-11-15T15:57:11.067Z,5.77
2022-11-15T15:59:39.607Z,5.33
2022-11-15T16:02:15.049Z,4.43
2022-11-15T16:04:43.480Z,2.40
2022-11-15T16:07:25.945Z,3.67
2022-11-15T16:10:03.335Z,2.50
2022-11-15T16:12:41.985Z,2.47
2022-11-15T16:15:11.417Z,2.40
2022-11-15T16:17:49.977Z,3.03
2022-11-15T16:20:34.579Z,2.50
2022-11-15T16:23:11.103Z,2.57
2022-11-15T16:25:43.382Z,2.70
2022-11-15T16:28:28.147Z,1.80
2022-11-15T16:31:03.660Z,3.30
2022-11-15T16:33:37.900Z,2.93
2022-11-15T16:36:07.937Z,3.20
2022-11-15T16:38:44.022Z,4.87
2022-11-15T16:41:12.427Z,4.13
2022-11-15T16:43:48.959Z,4.57
2022-11-15T16:46:20.420Z,4.50
2022-11-15T16:48:55.940Z,4.17
2022-11-15T16:51:25.742Z,4.33
2022-11-15T16:54:00.887Z,4.13
2022-11-15T16:56:30.449Z,6.07
2022-11-15T16:59:08.939Z,6.10
2022-11-15T17:01:47.169Z,3.87
2022-11-15T17:04:22.965Z,2.80
2022-11-15T17:06:51.308Z,9.97
2022-11-15T17:09:31.036Z,4.17
2022-11-15T17:11:59.591Z,4.50
2022-11-15T17:14:36.138Z,3.10
2022-11-15T17:17:04.689Z,3.93
2022-11-15T17:19:40.160Z,4.97
2022-11-15T17:22:16.823Z,3.27
2022-11-15T17:24:51.903Z,3.90
2022-11-15T17:27:21.851Z,3.43
2022-11-15T17:29:58.017Z,5.07
2022-11-15T17:32:32.976Z,5.17
2022-11-15T17:35:01.394Z,3.50
2022-11-15T17:37:36.038Z,4.13
2022-11-15T17:40:05.540Z,5.00
2022-11-15T17:42:41.073Z,3.27
2022-11-15T17:45:13.480Z,4.43
2022-11-15T17:47:48.261Z,3.27
2022-11-15T17:50:18.145Z,2.73
2022-11-15T17:52:53.197Z,2.70
2022-11-15T17:55:21.821Z,2.90
2022-11-15T17:57:57.054Z,3.77
2022-11-15T18:00:26.761Z,3.03
2022-11-15T18:03:02.127Z,3.03
2022-11-15T18:05:30.377Z,4.30
2022-11-15T18:08:05.171Z,3.73
2022-11-15T18:10:33.851Z,5.20
2022-11-15T18:13:09.153Z,3.50
2022-11-15T18:15:39.544Z,3.40
2022-11-15T18:18:15.028Z,3.13
2022-11-15T18:21:03.095Z,3.70
2022-11-15T18:23:38.037Z,3.43
2022-11-15T18:26:08.206Z,4.00
2022-11-15T18:28:46.066Z,3.97
2022-11-15T18:31:17.523Z,3.10
2022-11-15T18:33:53.185Z,2.97
2022-11-15T18:36:23.928Z,3.23
2022-11-15T18:39:03.236Z,3.40
2022-11-15T18:41:32.450Z,3.60
2022-11-15T18:44:09.204Z,3.50
2022-11-15T18:46:39.405Z,3.00
2022-11-15T18:49:15.011Z,3.33
2022-11-15T18:51:43.977Z,3.13
2022-11-15T18:54:20.222Z,3.20
2022-11-15T18:56:49.107Z,3.57
2022-11-15T18:59:24.068Z,5.73
2022-11-15T19:01:53.983Z,4.27
2022-11-15T19:04:29.247Z,3.83
2022-11-15T19:06:57.650Z,4.30
2022-11-15T19:09:39.060Z,5.03
2022-11-15T19:12:08.219Z,5.57
2022-11-15T19:14:43.101Z,4.73
2022-11-15T19:17:12.954Z,3.77
2022-11-15T19:19:48.077Z,4.30
2022-11-15T19:22:24.154Z,4.33
2022-11-15T19:24:59.148Z,6.83
2022-11-15T19:27:27.658Z,6.40
2022-11-15T19:30:03.177Z,7.13
2022-11-15T19:32:32.905Z,4.27
2022-11-15T19:35:08.158Z,4.87
2022-11-15T19:37:36.876Z,4.93
2022-11-15T19:40:12.122Z,4.17
2022-11-15T19:42:40.974Z,5.40
2022-11-15T19:45:16.251Z,4.73
2022-11-15T19:47:46.740Z,4.43
2022-11-15T19:50:21.185Z,5.73
2022-11-15T19:52:49.657Z,4.13
2022-11-15T19:55:24.129Z,3.80
2022-11-15T19:57:52.586Z,3.53
2022-11-15T20:00:28.157Z,5.07
2022-11-15T20:02:58.154Z,4.60
2022-11-15T20:05:33.378Z,4.40
2022-11-15T20:08:01.870Z,6.37
2022-11-15T20:10:37.139Z,3.93
2022-11-15T20:13:05.629Z,4.60
2022-11-15T20:15:40.135Z,3.93
2022-11-15T20:18:10.140Z,3.57
2022-11-15T20:20:45.299Z,4.03
2022-11-15T20:23:20.561Z,3.77
2022-11-15T20:25:57.603Z,3.63
2022-11-15T20:28:27.999Z,3.73
2022-11-15T20:31:06.349Z,4.43
2022-11-15T20:33:36.238Z,3.63
2022-11-15T20:36:13.126Z,3.53
2022-11-15T20:38:41.639Z,3.90
2022-11-15T20:41:19.426Z,3.90
2022-11-15T20:43:48.205Z,4.27
2022-11-15T20:46:23.166Z,3.63
2022-11-15T20:48:52.827Z,3.97
2022-11-15T20:51:28.334Z,3.80
2022-11-15T20:53:57.433Z,5.67
2022-11-15T20:56:32.094Z,4.73
2022-11-15T20:59:00.236Z,3.90
2022-11-15T21:01:35.374Z,4.10
2022-11-15T21:04:05.669Z,4.13
2022-11-15T21:06:44.636Z,4.27
2022-11-15T21:09:40.184Z,3.97
2022-11-15T21:12:12.596Z,4.97
2022-11-15T21:14:48.439Z,4.57
2022-11-15T21:17:17.881Z,4.87
2022-11-15T21:20:08.361Z,4.80
2022-11-15T21:22:36.990Z,3.73
2022-11-15T21:25:12.238Z,4.10
2022-11-15T21:27:40.706Z,4.43
2022-11-15T21:30:16.356Z,3.90
2022-11-15T21:32:45.868Z,4.33
2022-11-15T21:35:22.262Z,3.27
2022-11-15T21:37:56.477Z,3.50
2022-11-15T21:40:32.394Z,4.10
2022-11-15T21:43:00.790Z,3.40
2022-11-15T21:45:36.165Z,4.20
2022-11-15T21:48:05.582Z,3.50
2022-11-15T21:50:42.359Z,3.50
2022-11-15T21:53:10.880Z,4.00
2022-11-15T21:55:47.413Z,4.83
2022-11-15T21:58:15.775Z,3.80
2022-11-15T22:01:09.446Z,4.53
2022-11-15T22:03:38.092Z,3.93
2022-11-15T22:06:18.015Z,3.87
2022-11-15T22:08:47.579Z,4.17
2022-11-15T22:11:23.373Z,5.67
2022-11-15T22:13:51.568Z,3.33
2022-11-15T22:16:26.214Z,3.73
2022-11-15T22:18:54.617Z,3.40
2022-11-15T22:21:37.232Z,4.37
2022-11-15T22:24:06.197Z,4.57
2022-11-15T22:26:41.240Z,3.90
2022-11-15T22:29:09.599Z,3.40
2022-11-15T22:31:44.306Z,3.67
2022-11-15T22:34:12.558Z,3.30
2022-11-15T22:37:18.964Z,3.37
2022-11-15T22:39:42.260Z,5.33
2022-11-15T22:42:22.209Z,3.47
2022-11-15T22:44:52.027Z,4.13
2022-11-15T22:47:27.436Z,4.27
2022-11-15T22:49:56.036Z,4.30
2022-11-15T22:52:32.481Z,3.63
2022-11-15T22:55:00.863Z,3.77
2022-11-15T22:57:35.324Z,5.07
2022-11-15T23:00:04.009Z,4.73
2022-11-15T23:02:39.298Z,4.30
2022-11-15T23:05:08.521Z,3.87
2022-11-15T23:07:44.331Z,4.40
2022-11-15T23:10:30.076Z,5.60
2022-11-15T23:13:30.366Z,4.00
2022-11-15T23:16:29.859Z,3.73
2022-11-15T23:19:06.522Z,5.83
2022-11-15T23:22:06.422Z,6.73
2022-11-15T23:24:36.600Z,3.87
2022-11-15T23:27:14.355Z,3.97
2022-11-15T23:29:57.080Z,4.53
2022-11-15T23:32:49.330Z,4.93
2022-11-15T23:35:18.288Z,4.50
2022-11-15T23:37:53.378Z,3.80
2022-11-15T23:40:23.593Z,3.60
2022-11-15T23:42:58.464Z,5.13
2022-11-15T23:45:26.814Z,5.00
2022-11-15T23:48:01.797Z,3.67
2022-11-15T23:50:32.721Z,3.90
2022-11-15T23:53:07.282Z,3.67
2022-11-15T23:55:37.380Z,3.90
2022-11-15T23:58:12.496Z,4.20
